createdAt,value
2024-04-19T08:19:38.280Z,600.00
2024-04-19T08:20:38.359Z,600.00
2024-04-19T08:21:38.299Z,600.00
2024-04-19T08:22:38.259Z,600.00
2024-04-19T08:23:38.267Z,600.00
2024-04-19T08:24:38.288Z,602.00
2024-04-19T08:25:38.264Z,605.00
2024-04-19T08:26:38.275Z,603.00
2024-04-19T08:27:38.309Z,602.00
2024-04-19T08:28:38.282Z,601.00
2024-04-19T08:29:38.291Z,600.00
2024-04-19T08:30:38.326Z,604.00
2024-04-19T08:31:38.274Z,602.00
2024-04-19T08:32:38.326Z,602.00
2024-04-19T08:33:38.349Z,605.00
2024-04-19T08:34:38.411Z,601.00
2024-04-19T08:35:38.504Z,612.00
2024-04-19T08:36:38.513Z,614.00
2024-04-19T08:37:38.594Z,611.00
2024-04-19T08:38:38.626Z,618.00
2024-04-19T08:39:38.751Z,632.00
2024-04-19T08:40:41.471Z,632.00
2024-04-19T08:41:38.738Z,625.00
2024-04-19T08:42:38.764Z,623.00
2024-04-19T08:43:38.733Z,632.00
2024-04-19T08:44:39.433Z,625.00
2024-04-19T08:45:38.769Z,633.00
2024-04-19T08:46:38.809Z,629.00
2024-04-19T08:47:38.838Z,636.00
2024-04-19T08:48:38.932Z,633.00
2024-04-19T08:49:38.836Z,634.00
2024-04-19T08:50:38.815Z,648.00
2024-04-19T08:51:54.071Z,643.00
2024-04-19T08:52:59.001Z,644.00
2024-04-19T08:53:39.859Z,643.00
2024-04-19T08:54:41.877Z,632.00
2024-04-19T08:55:38.839Z,634.00
2024-04-19T08:56:38.817Z,622.00
2024-04-19T08:57:38.837Z,614.00
2024-04-19T08:58:38.837Z,613.00
2024-04-19T08:59:38.835Z,612.00
2024-04-19T09:00:38.913Z,616.00
2024-04-19T09:01:38.904Z,617.00
2024-04-19T09:02:38.837Z,622.00
2024-04-19T09:03:38.951Z,619.00
2024-04-19T09:04:38.949Z,620.00
2024-04-19T09:05:38.896Z,620.00
2024-04-19T09:06:38.891Z,612.00
2024-04-19T09:07:38.911Z,607.00
2024-04-19T09:08:38.892Z,606.00
2024-04-19T09:09:39.044Z,602.00
2024-04-19T09:10:38.879Z,602.00
2024-04-19T09:11:38.907Z,603.00
2024-04-19T09:12:38.919Z,606.00
2024-04-19T09:13:38.884Z,608.00
2024-04-19T09:14:38.935Z,614.00
2024-04-19T09:15:39.043Z,617.00
2024-04-19T09:16:39.078Z,614.00
2024-04-19T09:17:39.150Z,613.00
2024-04-19T09:18:39.204Z,620.00
2024-04-19T09:19:39.230Z,619.00
2024-04-19T09:20:39.323Z,624.00
2024-04-19T09:21:39.418Z,624.00
2024-04-19T09:22:39.510Z,624.00
2024-04-19T09:23:39.591Z,621.00
2024-04-19T09:24:39.710Z,619.00
2024-04-19T09:25:39.798Z,618.00
2024-04-19T09:26:39.878Z,614.00
2024-04-19T09:27:40.058Z,615.00
2024-04-19T09:28:40.063Z,617.00
2024-04-19T09:29:40.139Z,616.00
2024-04-19T09:30:40.257Z,624.00
2024-04-19T09:31:40.319Z,616.00
2024-04-19T09:32:40.523Z,608.00
2024-04-19T09:33:40.567Z,608.00
2024-04-19T09:34:40.624Z,600.00
2024-04-19T09:35:40.702Z,600.00
2024-04-19T09:36:40.852Z,601.00
2024-04-19T09:37:40.919Z,601.00
2024-04-19T09:38:41.025Z,600.00
2024-04-19T09:39:41.089Z,600.00
2024-04-19T09:40:41.168Z,600.00
2024-04-19T09:41:41.293Z,603.00
2024-04-19T09:42:41.437Z,616.00
2024-04-19T09:43:41.472Z,620.00
2024-04-19T09:44:41.618Z,615.00
2024-04-19T09:45:41.696Z,622.00
2024-04-19T09:46:41.777Z,635.00
2024-04-19T09:47:41.873Z,640.00
2024-04-19T09:48:42.058Z,634.00
2024-04-19T09:49:42.170Z,577.00
2024-04-19T09:50:42.218Z,528.00
2024-04-19T09:51:42.343Z,490.00
2024-04-19T09:52:42.448Z,507.00
2024-04-19T09:53:43.475Z,486.00
2024-04-19T09:54:42.644Z,463.00
2024-04-19T09:55:42.774Z,400.00
2024-04-19T09:56:42.747Z,400.00
2024-04-19T09:57:42.897Z,400.00
2024-04-19T09:58:42.897Z,400.00
2024-04-19T09:59:42.994Z,400.00
2024-04-19T10:00:43.108Z,400.00
2024-04-19T10:01:43.215Z,400.00
2024-04-19T10:02:43.234Z,400.00
2024-04-19T10:03:43.400Z,400.00
2024-04-19T10:04:43.454Z,400.00
2024-04-19T10:05:43.528Z,400.00
2024-04-19T10:06:44.036Z,400.00
2024-04-19T10:08:26.296Z,600.00
2024-04-19T10:09:26.365Z,600.00
2024-04-19T10:10:26.298Z,600.00
2024-04-19T10:11:26.329Z,600.00
2024-04-19T10:12:26.313Z,600.00
2024-04-19T10:13:26.287Z,604.00
2024-04-19T10:14:26.297Z,591.00
2024-04-19T10:15:26.331Z,587.00
2024-04-19T10:16:26.317Z,601.00
2024-04-19T10:17:26.314Z,598.00
2024-04-19T10:18:26.390Z,601.00
2024-04-19T10:19:26.907Z,609.00
2024-04-19T10:20:26.348Z,641.00
2024-04-19T10:21:26.450Z,716.00
2024-04-19T10:22:26.329Z,864.00
2024-04-19T10:23:26.340Z,922.00
2024-04-19T10:24:26.406Z,837.00
2024-04-19T10:25:26.382Z,711.00
2024-04-19T10:26:26.355Z,683.00
2024-04-19T10:27:26.371Z,723.00
2024-04-19T10:28:26.386Z,724.00
2024-04-19T10:29:26.351Z,661.00
2024-04-19T10:30:34.514Z,680.00
2024-04-19T10:31:27.383Z,683.00
2024-04-19T10:32:26.363Z,682.00
2024-04-19T10:33:26.382Z,704.00
2024-04-19T10:34:26.378Z,740.00
2024-04-19T10:35:26.355Z,762.00
2024-04-19T10:36:26.383Z,900.00
2024-04-19T10:37:26.357Z,1001.00
2024-04-19T10:38:26.382Z,1061.00
2024-04-19T10:39:26.470Z,1093.00
2024-04-19T10:40:26.376Z,1130.00
2024-04-19T10:41:26.375Z,1067.00
2024-04-19T10:42:26.393Z,1052.00
2024-04-19T10:43:26.437Z,971.00
2024-04-19T10:44:26.500Z,827.00
2024-04-19T10:45:26.649Z,793.00
2024-04-19T10:46:26.671Z,781.00
2024-04-19T10:47:26.804Z,830.00
2024-04-19T10:48:29.008Z,856.00
2024-04-19T10:49:26.898Z,907.00
2024-04-19T10:50:26.965Z,979.00
2024-04-19T10:51:27.049Z,1028.00
2024-04-19T10:52:27.106Z,1073.00
2024-04-19T10:53:27.199Z,1128.00
2024-04-19T10:54:27.302Z,1136.00
2024-04-19T10:55:27.357Z,1133.00
2024-04-19T10:56:27.432Z,1161.00
2024-04-19T10:57:27.547Z,1206.00
2024-04-19T10:58:27.563Z,1247.00
2024-04-19T10:59:27.656Z,1283.00
2024-04-19T11:00:27.891Z,1304.00
2024-04-19T11:01:27.833Z,1284.00
2024-04-19T11:02:28.079Z,1283.00
2024-04-19T11:03:27.968Z,1278.00
2024-04-19T11:04:28.094Z,1263.00
2024-04-19T11:05:28.082Z,1315.00
2024-04-19T11:06:28.185Z,1301.00
2024-04-19T11:07:28.258Z,1328.00
2024-04-19T11:08:28.278Z,1343.00
2024-04-19T11:09:28.411Z,1338.00
2024-04-19T11:10:28.417Z,1355.00
2024-04-19T11:11:28.536Z,1364.00
2024-04-19T11:12:28.623Z,1288.00
2024-04-19T11:13:28.640Z,1312.00
2024-04-19T11:14:28.705Z,1302.00
2024-04-19T11:15:29.063Z,1274.00
2024-04-19T11:16:28.842Z,1261.00
2024-04-19T11:17:29.044Z,1305.00
2024-04-19T11:18:29.147Z,1301.00
2024-04-19T11:19:29.068Z,1286.00
2024-04-19T11:20:29.141Z,1284.00
2024-04-19T11:21:29.210Z,1271.00
2024-04-19T11:22:29.304Z,1253.00
2024-04-19T11:23:29.340Z,1285.00
2024-04-19T11:24:29.433Z,1264.00
2024-04-19T11:25:29.495Z,1222.00
2024-04-19T11:26:29.603Z,1156.00
2024-04-19T11:27:29.640Z,1145.00
2024-04-19T11:28:29.721Z,1161.00
2024-04-19T11:29:29.813Z,1217.00
2024-04-19T11:30:29.923Z,1265.00
2024-04-19T11:31:30.026Z,1293.00
2024-04-19T11:32:30.216Z,1333.00
2024-04-19T11:33:30.123Z,1368.00
2024-04-19T11:34:30.216Z,1408.00
2024-04-19T11:35:30.263Z,1444.00
2024-04-19T11:36:30.356Z,1480.00
2024-04-19T11:37:30.377Z,1524.00
2024-04-19T11:38:30.487Z,1543.00
2024-04-19T11:39:30.505Z,1674.00
2024-04-19T11:40:30.581Z,1845.00
2024-04-19T11:41:30.680Z,1899.00
2024-04-19T11:42:30.708Z,1940.00
2024-04-19T11:43:30.765Z,2001.00
2024-04-19T11:44:30.859Z,2016.00
2024-04-19T11:45:30.938Z,2009.00
2024-04-19T11:46:31.130Z,2002.00
2024-04-19T11:47:31.144Z,2016.00
2024-04-19T11:48:31.249Z,2043.00
2024-04-19T11:49:31.184Z,2070.00
2024-04-19T11:50:31.301Z,2095.00
2024-04-19T11:51:31.402Z,2117.00
2024-04-19T11:52:31.410Z,2142.00
2024-04-19T11:53:31.465Z,2169.00
2024-04-19T11:54:31.554Z,2183.00
2024-04-19T11:55:31.583Z,2207.00
2024-04-19T11:56:31.726Z,2173.00
2024-04-19T11:57:31.783Z,2131.00
2024-04-19T11:58:31.832Z,2110.00
2024-04-19T11:59:31.922Z,2103.00
2024-04-19T12:00:32.042Z,2094.00
2024-04-19T12:01:32.124Z,2097.00
2024-04-19T12:02:32.148Z,2087.00
2024-04-19T12:03:32.414Z,2077.00
2024-04-19T12:04:32.412Z,2084.00
2024-04-19T12:05:32.346Z,2077.00
2024-04-19T12:06:32.424Z,2089.00
2024-04-19T12:07:32.511Z,2090.00
2024-04-19T12:08:32.469Z,2054.00
2024-04-19T12:09:32.512Z,2022.00
2024-04-19T12:10:32.534Z,2017.00
2024-04-19T12:11:32.586Z,2027.00
2024-04-19T12:13:09.749Z,2016.00
2024-04-19T12:16:39.758Z,600.00
2024-04-19T12:17:30.436Z,600.00
2024-04-19T12:18:29.350Z,600.00
2024-04-19T12:19:28.765Z,600.00
2024-04-19T12:20:41.324Z,600.00
2024-04-19T12:21:29.668Z,600.00
2024-04-19T12:22:30.135Z,600.00
2024-04-19T12:23:29.927Z,600.00
2024-04-19T12:24:29.968Z,600.00
2024-04-19T12:25:29.219Z,600.00
2024-04-19T12:26:29.180Z,601.00
2024-04-19T12:27:29.043Z,601.00
2024-04-19T12:28:28.865Z,605.00
2024-04-19T12:29:28.990Z,603.00
2024-04-19T12:30:28.933Z,602.00
2024-04-19T12:31:28.920Z,601.00
2024-04-19T12:32:29.000Z,601.00
2024-04-19T12:33:29.053Z,600.00
2024-04-19T12:34:29.043Z,607.00
2024-04-19T12:35:29.117Z,600.00
2024-04-19T12:36:29.158Z,601.00
2024-04-19T12:37:29.175Z,602.00
2024-04-19T12:38:30.881Z,606.00
2024-04-19T12:39:29.262Z,611.00
2024-04-19T12:40:29.243Z,615.00
2024-04-19T12:41:29.299Z,623.00
2024-04-19T12:42:29.337Z,627.00
2024-04-19T12:43:29.356Z,624.00
2024-04-19T12:44:29.372Z,624.00
2024-04-19T12:45:29.490Z,623.00
2024-04-19T12:46:29.442Z,624.00
2024-04-19T12:47:29.553Z,624.00
2024-04-19T12:48:29.734Z,624.00
2024-04-19T12:49:29.709Z,627.00
2024-04-19T12:50:29.764Z,626.00
2024-04-19T12:51:29.927Z,630.00
2024-04-19T12:52:29.933Z,634.00
2024-04-19T12:53:30.055Z,630.00
2024-04-19T12:54:30.105Z,628.00
2024-04-19T12:55:30.204Z,628.00
2024-04-19T12:56:30.330Z,619.00
2024-04-19T12:57:30.372Z,614.00
2024-04-19T12:58:30.422Z,611.00
2024-04-19T12:59:30.495Z,608.00
2024-04-19T13:00:30.989Z,608.00
2024-04-19T13:01:30.700Z,611.00
2024-04-19T13:02:30.700Z,608.00
2024-04-19T13:03:30.803Z,609.00
2024-04-19T13:04:30.792Z,610.00
2024-04-19T13:05:30.784Z,610.00
2024-04-19T13:06:30.886Z,611.00
2024-04-19T13:07:30.859Z,622.00
2024-04-19T13:08:30.949Z,660.00
2024-04-19T13:09:30.923Z,786.00
2024-04-19T13:10:30.959Z,868.00
2024-04-19T13:11:31.008Z,954.00
2024-04-19T13:12:31.035Z,993.00
2024-04-19T13:13:31.091Z,1045.00
2024-04-19T13:14:31.086Z,1067.00
2024-04-19T13:15:31.191Z,1107.00
2024-04-19T13:16:31.299Z,1117.00
2024-04-19T13:17:31.251Z,1138.00
2024-04-19T13:18:31.347Z,1166.00
2024-04-19T13:19:31.432Z,1196.00
2024-04-19T13:20:31.535Z,1228.00
2024-04-19T13:21:31.636Z,1199.00
2024-04-19T13:22:31.686Z,1198.00
2024-04-19T13:23:31.783Z,1199.00
2024-04-19T13:24:31.900Z,1181.00
2024-04-19T13:25:31.944Z,1161.00
2024-04-19T13:26:32.052Z,1144.00
2024-04-19T13:27:32.151Z,1138.00
2024-04-19T13:28:32.218Z,1137.00
2024-04-19T13:29:32.330Z,1112.00
2024-04-19T13:30:32.449Z,1086.00
2024-04-19T13:31:32.595Z,1091.00
2024-04-19T13:32:32.670Z,1077.00
2024-04-19T13:33:32.670Z,1055.00
2024-04-19T13:34:32.760Z,1041.00
2024-04-19T13:35:32.879Z,1014.00
2024-04-19T13:36:32.969Z,1008.00
2024-04-19T13:37:33.055Z,982.00
2024-04-19T13:38:33.141Z,974.00
2024-04-19T13:39:33.275Z,954.00
2024-04-19T13:40:33.324Z,938.00
2024-04-19T13:41:33.432Z,938.00
2024-04-19T13:42:33.547Z,933.00
2024-04-19T13:43:33.626Z,933.00
2024-04-19T13:44:34.808Z,945.00
2024-04-19T13:45:33.851Z,933.00
2024-04-19T13:46:33.882Z,926.00
2024-04-19T13:47:34.226Z,926.00
2024-04-19T13:48:34.296Z,935.00
2024-04-19T13:49:34.217Z,923.00
2024-04-19T13:50:34.276Z,919.00
2024-04-19T13:51:34.404Z,920.00
2024-04-19T13:52:34.481Z,917.00
2024-04-19T13:53:34.534Z,913.00
2024-04-19T13:54:34.670Z,928.00
2024-04-19T13:55:34.752Z,940.00
2024-04-19T13:56:34.834Z,937.00
2024-04-19T13:57:34.951Z,909.00
2024-04-19T13:58:35.022Z,880.00
2024-04-19T13:59:35.122Z,880.00
2024-04-19T14:00:35.275Z,877.00
2024-04-19T14:01:35.400Z,874.00
2024-04-19T14:02:35.450Z,865.00
2024-04-19T14:03:35.530Z,846.00
2024-04-19T14:04:35.569Z,831.00
2024-04-19T14:05:35.713Z,827.00
2024-04-19T14:06:35.798Z,815.00
2024-04-19T14:07:35.862Z,805.00
2024-04-19T14:08:35.963Z,811.00
2024-04-19T14:09:36.077Z,813.00
2024-04-19T14:10:36.160Z,814.00
2024-04-19T14:11:36.241Z,813.00
2024-04-19T14:12:38.437Z,813.00
2024-04-19T14:13:36.346Z,803.00
2024-04-19T14:14:36.331Z,793.00
2024-04-19T14:15:36.326Z,778.00
2024-04-19T14:16:36.370Z,775.00
2024-04-19T14:17:36.401Z,771.00
2024-04-19T14:18:36.390Z,767.00
2024-04-19T14:19:36.348Z,757.00
2024-04-19T14:20:36.357Z,764.00
2024-04-19T14:21:36.403Z,761.00
2024-04-19T14:22:36.324Z,769.00
2024-04-19T14:23:36.371Z,765.00
2024-04-19T14:24:36.390Z,774.00
2024-04-19T14:25:36.372Z,781.00
2024-04-19T14:26:36.371Z,782.00
2024-04-19T14:27:36.353Z,784.00
2024-04-19T14:28:36.345Z,793.00
2024-04-19T14:29:36.374Z,776.00
2024-04-19T14:30:36.365Z,788.00
2024-04-19T14:31:36.337Z,790.00
2024-04-19T14:32:36.559Z,775.00
2024-04-19T14:33:36.378Z,773.00
2024-04-19T14:34:36.362Z,769.00
2024-04-19T14:35:36.389Z,745.00
2024-04-19T14:36:36.446Z,725.00
2024-04-19T14:37:36.367Z,720.00
2024-04-19T14:38:36.368Z,709.00
2024-04-19T14:39:36.479Z,715.00
2024-04-19T14:40:36.388Z,681.00
2024-04-19T14:41:36.414Z,688.00
2024-04-19T14:42:36.382Z,684.00
2024-04-19T14:43:36.370Z,665.00
2024-04-19T14:44:36.381Z,657.00
2024-04-19T14:45:36.391Z,657.00
2024-04-19T14:46:36.390Z,644.00
2024-04-19T14:47:36.484Z,631.00
2024-04-19T14:48:36.634Z,617.00
2024-04-19T14:49:36.441Z,600.00
2024-04-19T14:50:36.408Z,598.00
2024-04-19T14:51:36.604Z,604.00
2024-04-19T14:52:36.594Z,605.00
2024-04-19T14:53:36.682Z,611.00
2024-04-19T14:54:36.783Z,600.00
2024-04-19T14:55:36.886Z,600.00
2024-04-19T14:56:36.937Z,602.00
2024-04-19T14:57:37.027Z,600.00
2024-04-19T14:58:37.116Z,602.00
2024-04-19T14:59:37.227Z,600.00
2024-04-19T15:00:37.367Z,605.00
2024-04-19T15:01:37.510Z,608.00
2024-04-19T15:02:37.636Z,598.00
2024-04-19T15:03:37.658Z,600.00
2024-04-19T15:04:37.771Z,608.00
2024-04-19T15:05:37.790Z,603.00
2024-04-19T15:06:40.397Z,606.00
2024-04-19T15:07:37.860Z,601.00
2024-04-19T15:08:37.866Z,604.00
2024-04-19T15:09:37.904Z,605.00
2024-04-19T15:10:37.873Z,603.00
2024-04-19T15:11:37.945Z,606.00
2024-04-19T15:12:37.937Z,601.00
2024-04-19T15:13:37.884Z,600.00
2024-04-19T15:14:37.869Z,603.00
2024-04-19T15:15:37.925Z,601.00
2024-04-19T15:16:37.938Z,598.00
2024-04-19T15:17:38.002Z,601.00
2024-04-19T15:18:37.929Z,601.00
2024-04-19T15:19:37.897Z,601.00
2024-04-19T15:20:37.928Z,600.00
2024-04-19T15:21:37.953Z,600.00
2024-04-19T15:22:37.917Z,601.00
2024-04-19T15:23:37.916Z,611.00
2024-04-19T15:24:37.929Z,602.00
2024-04-19T15:25:38.918Z,601.00
2024-04-19T15:26:37.908Z,608.00
2024-04-19T15:27:37.962Z,600.00
2024-04-19T15:28:37.922Z,608.00
2024-04-19T15:29:37.935Z,598.00
2024-04-19T15:30:38.046Z,595.00
2024-04-19T15:31:37.969Z,591.00
2024-04-19T15:32:37.986Z,603.00
2024-04-19T15:33:38.104Z,610.00
2024-04-19T15:34:47.071Z,622.00
2024-04-19T15:35:38.936Z,622.00
2024-04-19T15:36:37.991Z,624.00
2024-04-19T15:37:37.940Z,628.00
2024-04-19T15:38:37.920Z,622.00
2024-04-19T15:39:37.947Z,630.00
2024-04-19T15:40:37.959Z,624.00
2024-04-19T15:41:44.677Z,607.00
2024-04-19T15:42:38.990Z,607.00
2024-04-19T15:43:37.989Z,582.00
2024-04-19T15:44:37.962Z,572.00
2024-04-19T15:45:37.981Z,583.00
2024-04-19T15:46:37.987Z,585.00
2024-04-19T15:47:38.040Z,600.00
2024-04-19T15:48:38.023Z,600.00
2024-04-19T15:49:38.024Z,606.00
2024-04-19T15:50:38.035Z,603.00
2024-04-19T15:51:38.011Z,603.00
2024-04-19T15:52:38.031Z,610.00
2024-04-19T15:53:38.033Z,615.00
2024-04-19T15:54:38.144Z,623.00
2024-04-19T15:55:38.217Z,625.00
2024-04-19T15:56:38.289Z,627.00
2024-04-19T15:57:38.418Z,626.00
2024-04-19T15:58:38.487Z,626.00
2024-04-19T15:59:38.587Z,618.00
2024-04-19T16:00:38.753Z,616.00
2024-04-19T16:01:38.854Z,615.00
2024-04-19T16:02:38.915Z,617.00
2024-04-19T16:03:39.093Z,605.00
2024-04-19T16:04:39.259Z,603.00
2024-04-19T16:05:39.199Z,603.00
2024-04-19T16:06:39.314Z,611.00
2024-04-19T16:07:39.383Z,614.00
2024-04-19T16:08:39.455Z,611.00
2024-04-19T16:09:39.582Z,619.00
2024-04-19T16:10:39.717Z,611.00
2024-04-19T16:11:39.758Z,617.00
2024-04-19T16:12:39.864Z,614.00
2024-04-19T16:13:39.973Z,610.00
2024-04-19T16:14:40.077Z,603.00
2024-04-19T16:15:40.221Z,605.00
2024-04-19T16:16:40.272Z,619.00
2024-04-19T16:17:40.430Z,608.00
2024-04-19T16:18:40.458Z,598.00
2024-04-19T16:19:40.535Z,605.00
2024-04-19T16:20:40.617Z,603.00
2024-04-19T16:21:40.743Z,601.00
2024-04-19T16:22:40.803Z,600.00
2024-04-19T16:23:40.887Z,601.00
2024-04-19T16:24:40.986Z,603.00
2024-04-19T16:25:41.079Z,608.00
2024-04-19T16:26:41.175Z,607.00
2024-04-19T16:27:41.324Z,607.00
2024-04-19T16:28:41.360Z,613.00
2024-04-19T16:29:41.469Z,613.00
2024-04-19T16:30:41.622Z,617.00
2024-04-19T16:31:41.675Z,622.00
2024-04-19T16:32:41.856Z,613.00
2024-04-19T16:33:41.992Z,603.00
2024-04-19T16:34:42.044Z,606.00
2024-04-19T16:35:51.378Z,613.00
2024-04-19T16:36:43.100Z,606.00
2024-04-19T16:37:42.068Z,607.00
2024-04-19T16:38:42.075Z,605.00
2024-04-19T16:39:42.131Z,601.00
2024-04-19T16:40:42.095Z,605.00
2024-04-19T16:41:42.127Z,611.00
2024-04-19T16:42:42.186Z,611.00
2024-04-19T16:43:42.146Z,614.00
2024-04-19T16:44:42.131Z,620.00
2024-04-19T16:45:42.166Z,632.00
2024-04-19T16:46:42.144Z,638.00
2024-04-19T16:47:42.204Z,649.00
2024-04-19T16:48:42.165Z,649.00
2024-04-19T16:49:42.215Z,651.00
2024-04-19T16:50:42.182Z,658.00
2024-04-19T16:51:42.204Z,655.00
2024-04-19T16:52:42.183Z,660.00
2024-04-19T16:53:42.146Z,664.00
2024-04-19T16:54:42.230Z,674.00
2024-04-19T16:55:42.259Z,656.00
2024-04-19T16:56:42.394Z,651.00
2024-04-19T16:57:42.498Z,655.00
2024-04-19T16:58:42.557Z,665.00
2024-04-19T16:59:42.627Z,689.00
2024-04-19T17:00:42.866Z,713.00
2024-04-19T17:01:42.954Z,718.00
2024-04-19T17:02:42.962Z,668.00
2024-04-19T17:03:43.115Z,624.00
2024-04-19T17:04:43.189Z,604.00
2024-04-19T17:05:43.307Z,595.00
2024-04-19T17:06:43.439Z,600.00
2024-04-19T17:07:43.558Z,598.00
2024-04-19T17:08:43.683Z,599.00
2024-04-19T17:09:43.726Z,599.00
2024-04-19T17:10:43.809Z,598.00
2024-04-19T17:11:43.906Z,599.00
2024-04-19T17:12:44.084Z,600.00
2024-04-19T17:13:44.150Z,595.00
2024-04-19T17:14:44.258Z,598.00
2024-04-19T17:15:44.417Z,603.00
2024-04-19T17:16:44.315Z,600.00
2024-04-19T17:17:44.449Z,600.00
2024-04-19T17:18:44.563Z,599.00
2024-04-19T17:19:44.568Z,600.00
2024-04-19T17:20:44.650Z,598.00
2024-04-19T17:21:44.787Z,600.00
2024-04-19T17:22:44.830Z,600.00
2024-04-19T17:23:44.897Z,600.00
2024-04-19T17:24:44.994Z,600.00
2024-04-19T17:25:45.159Z,600.00
2024-04-19T17:26:45.317Z,601.00
2024-04-19T17:27:45.561Z,600.00
2024-04-19T17:28:45.534Z,599.00
2024-04-19T17:29:45.609Z,601.00
2024-04-19T17:30:45.698Z,602.00
2024-04-19T17:31:45.717Z,600.00
2024-04-19T17:32:45.969Z,603.00
2024-04-19T17:33:46.042Z,601.00
2024-04-19T17:34:45.982Z,604.00
2024-04-19T17:35:46.118Z,604.00
2024-04-19T17:36:46.254Z,600.00
2024-04-19T17:37:46.344Z,601.00
2024-04-19T17:38:46.384Z,604.00
2024-04-19T17:39:46.456Z,600.00
2024-04-19T17:40:46.482Z,601.00
2024-04-19T17:41:46.601Z,601.00
2024-04-19T17:42:46.785Z,600.00
2024-04-19T17:43:46.849Z,607.00
2024-04-19T17:44:46.921Z,606.00
2024-04-19T17:45:47.131Z,600.00
2024-04-19T17:46:47.083Z,603.00
2024-04-19T17:47:47.240Z,616.00
2024-04-19T17:48:47.253Z,619.00
2024-04-19T17:49:47.287Z,617.00
2024-04-19T17:50:47.346Z,606.00
2024-04-19T17:51:47.422Z,605.00
2024-04-19T17:52:47.489Z,600.00
2024-04-19T17:53:47.553Z,602.00
2024-04-19T17:54:47.640Z,600.00
2024-04-19T17:55:47.696Z,601.00
2024-04-19T17:56:47.777Z,601.00
2024-04-19T17:57:49.737Z,606.00
2024-04-19T17:58:47.834Z,603.00
2024-04-19T17:59:47.848Z,611.00
2024-04-19T18:00:47.938Z,609.00
2024-04-19T18:01:47.908Z,606.00
2024-04-19T18:02:47.879Z,602.00
2024-04-19T18:03:47.927Z,604.00
2024-04-19T18:04:47.941Z,601.00
2024-04-19T18:05:47.900Z,600.00
2024-04-19T18:06:47.904Z,607.00
2024-04-19T18:07:47.875Z,600.00
2024-04-19T18:08:47.859Z,604.00
2024-04-19T18:09:47.881Z,608.00
2024-04-19T18:10:47.993Z,607.00
2024-04-19T18:11:47.859Z,601.00
2024-04-19T18:12:47.930Z,604.00
2024-04-19T18:13:47.886Z,600.00
2024-04-19T18:14:47.881Z,606.00
2024-04-19T18:15:47.937Z,605.00
2024-04-19T18:16:47.911Z,610.00
2024-04-19T18:17:50.521Z,617.00
2024-04-19T18:18:48.057Z,602.00
2024-04-19T18:19:47.895Z,605.00
2024-04-19T18:20:47.915Z,600.00
2024-04-19T18:21:48.009Z,597.00
2024-04-19T18:22:47.940Z,592.00
2024-04-19T18:23:47.952Z,604.00
2024-04-19T18:24:47.984Z,606.00
2024-04-19T18:25:47.953Z,603.00
2024-04-19T18:26:47.959Z,601.00
2024-04-19T18:27:47.983Z,600.00
2024-04-19T18:28:47.959Z,599.00
2024-04-19T18:29:47.950Z,606.00
2024-04-19T18:30:47.990Z,606.00
2024-04-19T18:31:47.973Z,602.00
2024-04-19T18:32:47.969Z,601.00
2024-04-19T18:33:48.104Z,606.00
2024-04-19T18:34:47.936Z,597.00
2024-04-19T18:35:47.995Z,601.00
2024-04-19T18:36:47.981Z,611.00
2024-04-19T18:37:47.947Z,607.00
2024-04-19T18:38:47.966Z,608.00
2024-04-19T18:39:47.994Z,606.00
2024-04-19T18:40:47.964Z,603.00
2024-04-19T18:41:47.973Z,602.00
2024-04-19T18:42:48.010Z,600.00
2024-04-19T18:43:48.011Z,600.00
2024-04-19T18:44:48.038Z,600.00
2024-04-19T18:45:48.099Z,603.00
2024-04-19T18:46:47.994Z,607.00
2024-04-19T18:47:48.074Z,609.00
2024-04-19T18:48:48.203Z,604.00
2024-04-19T18:49:48.032Z,600.00
2024-04-19T18:50:48.028Z,598.00
2024-04-19T18:51:48.064Z,606.00
2024-04-19T18:52:48.024Z,602.00
2024-04-19T18:53:48.038Z,604.00
2024-04-19T18:54:48.118Z,612.00
2024-04-19T18:55:48.016Z,604.00
2024-04-19T18:56:48.076Z,602.00
2024-04-19T18:57:48.052Z,601.00
2024-04-19T18:58:48.099Z,608.00
2024-04-19T18:59:48.054Z,607.00
2024-04-19T19:00:49.082Z,602.00
2024-04-19T19:01:48.130Z,601.00
2024-04-19T19:02:48.242Z,606.00
2024-04-19T19:03:48.508Z,605.00
2024-04-19T19:04:48.342Z,609.00
2024-04-19T19:05:48.441Z,610.00
2024-04-19T19:06:48.540Z,613.00
2024-04-19T19:07:48.576Z,622.00
2024-04-19T19:08:48.683Z,622.00
2024-04-19T19:09:48.816Z,626.00
2024-04-19T19:10:48.958Z,623.00
2024-04-19T19:11:48.939Z,626.00
2024-04-19T19:12:49.104Z,616.00
2024-04-19T19:13:49.101Z,620.00
2024-04-19T19:14:49.215Z,612.00
2024-04-19T19:15:49.358Z,609.00
2024-04-19T19:16:49.384Z,606.00
2024-04-19T19:17:49.508Z,615.00
2024-04-19T19:18:49.649Z,629.00
2024-04-19T19:19:49.624Z,633.00
2024-04-19T19:20:49.755Z,637.00
2024-04-19T19:21:49.850Z,629.00
2024-04-19T19:22:49.890Z,634.00
2024-04-19T19:23:50.013Z,629.00
2024-04-19T19:24:50.183Z,629.00
2024-04-19T19:25:50.178Z,629.00
2024-04-19T19:26:50.269Z,628.00
2024-04-19T19:27:50.412Z,618.00
2024-04-19T19:28:50.461Z,618.00
2024-04-19T19:29:50.527Z,614.00
2024-04-19T19:30:50.672Z,612.00
2024-04-19T19:31:50.788Z,599.00
2024-04-19T19:32:50.915Z,612.00
2024-04-19T19:33:50.949Z,607.00
2024-04-19T19:34:51.046Z,606.00
2024-04-19T19:35:51.114Z,605.00
2024-04-19T19:36:51.379Z,605.00
2024-04-19T19:37:51.338Z,609.00
2024-04-19T19:38:51.408Z,603.00
2024-04-19T19:39:51.546Z,603.00
2024-04-19T19:40:51.636Z,604.00
2024-04-19T19:41:51.717Z,601.00
2024-04-19T19:42:51.843Z,598.00
2024-04-19T19:43:51.945Z,599.00
2024-04-19T19:44:52.002Z,603.00
2024-04-19T19:45:52.092Z,609.00
2024-04-19T19:46:52.216Z,626.00
2024-04-19T19:47:52.461Z,623.00
2024-04-19T19:48:52.414Z,622.00
2024-04-19T19:49:52.515Z,613.00
2024-04-19T19:50:52.607Z,615.00
2024-04-19T19:51:52.732Z,616.00
2024-04-19T19:52:52.808Z,616.00
2024-04-19T19:53:52.908Z,608.00
2024-04-19T19:54:53.012Z,603.00
2024-04-19T19:55:53.077Z,601.00
2024-04-19T19:56:53.187Z,606.00
2024-04-19T19:57:53.304Z,604.00
2024-04-19T19:58:53.425Z,600.00
2024-04-19T19:59:53.525Z,601.00
2024-04-19T20:00:53.705Z,599.00
2024-04-19T20:01:53.825Z,603.00
2024-04-19T20:02:53.814Z,601.00
2024-04-19T20:03:54.083Z,604.00
2024-04-19T20:04:54.005Z,600.00
2024-04-19T20:05:54.111Z,604.00
2024-04-19T20:06:54.266Z,608.00
2024-04-19T20:07:54.355Z,609.00
2024-04-19T20:08:54.442Z,609.00
2024-04-19T20:09:54.646Z,611.00
2024-04-19T20:10:54.729Z,606.00
2024-04-19T20:11:54.800Z,609.00
2024-04-19T20:12:54.944Z,626.00
2024-04-19T20:13:55.002Z,636.00
2024-04-19T20:14:55.129Z,644.00
2024-04-19T20:15:55.271Z,653.00
2024-04-19T20:16:55.328Z,646.00
2024-04-19T20:17:56.134Z,643.00
2024-04-19T20:18:55.762Z,645.00
2024-04-19T20:19:55.659Z,641.00
2024-04-19T20:20:55.771Z,641.00
2024-04-19T20:21:55.915Z,634.00
2024-04-19T20:22:56.002Z,641.00
2024-04-19T20:23:56.109Z,633.00
2024-04-19T20:24:56.286Z,626.00
2024-04-19T20:25:56.320Z,625.00
2024-04-19T20:26:56.426Z,623.00
2024-04-19T20:27:56.568Z,617.00
2024-04-19T20:28:56.625Z,616.00
2024-04-19T20:29:56.740Z,614.00
2024-04-19T20:30:56.878Z,619.00
2024-04-19T20:31:56.907Z,618.00
2024-04-19T20:32:57.148Z,620.00
2024-04-19T20:33:57.195Z,615.00
2024-04-19T20:34:57.230Z,616.00
2024-04-19T20:35:57.355Z,618.00
2024-04-19T20:36:57.441Z,616.00
2024-04-19T20:37:57.542Z,616.00
2024-04-19T20:38:57.653Z,615.00
2024-04-19T20:39:57.812Z,614.00
2024-04-19T20:40:57.850Z,619.00
2024-04-19T20:41:57.962Z,609.00
2024-04-19T20:43:06.437Z,611.00
2024-04-19T20:43:59.092Z,607.00
2024-04-19T20:44:58.086Z,603.00
2024-04-19T20:45:58.181Z,603.00
2024-04-19T20:46:58.067Z,598.00
2024-04-19T20:47:58.177Z,592.00
2024-04-19T20:48:58.229Z,604.00